sensor_id;sensor_type;location;lat;lon;timestamp;pressure;altitude;pressure_sealevel;temperature;humidity
12676;BME280;63820;65.654;21.944;2023-02-19T00:01:07;99045.91;;;-3.33;100.00
12676;BME280;63820;65.654;21.944;2023-02-19T00:03:55;99048.47;;;-3.35;100.00
12676;BME280;63820;65.654;21.944;2023-02-19T00:06:40;99051.78;;;-3.28;100.00
12676;BME280;63820;65.654;21.944;2023-02-19T00:09:24;99058.66;;;-3.38;100.00
12676;BME280;63820;65.654;21.944;2023-02-19T00:12:09;99056.00;;;-3.27;100.00
12676;BME280;63820;65.654;21.944;2023-02-19T00:14:53;99045.91;;;-3.33;100.00
12676;BME280;63820;65.654;21.944;2023-02-19T00:17:39;99053.56;;;-3.38;100.00
12676;BME280;63820;65.654;21.944;2023-02-19T00:20:24;99054.47;;;-3.42;100.00
12676;BME280;63820;65.654;21.944;2023-02-19T00:23:08;99061.25;;;-3.44;100.00
12676;BME280;63820;65.654;21.944;2023-02-19T00:25:53;99064.66;;;-3.43;100.00
12676;BME280;63820;65.654;21.944;2023-02-19T00:28:38;99066.38;;;-3.45;100.00
12676;BME280;63820;65.654;21.944;2023-02-19T00:31:27;99058.72;;;-3.44;100.00
12676;BME280;63820;65.654;21.944;2023-02-19T00:34:12;99062.06;;;-3.40;100.00
12676;BME280;63820;65.654;21.944;2023-02-19T00:36:57;99062.97;;;-3.44;100.00
12676;BME280;63820;65.654;21.944;2023-02-19T00:39:41;99064.63;;;-3.42;100.00
12676;BME280;63820;65.654;21.944;2023-02-19T00:42:25;99068.91;;;-3.45;100.00
12676;BME280;63820;65.654;21.944;2023-02-19T00:45:10;99070.59;;;-3.46;100.00
12676;BME280;63820;65.654;21.944;2023-02-19T00:47:54;99072.31;;;-3.48;100.00
12676;BME280;63820;65.654;21.944;2023-02-19T00:50:38;99073.19;;;-3.49;100.00
12676;BME280;63820;65.654;21.944;2023-02-19T00:53:22;99080.00;;;-3.54;100.00
12676;BME280;63820;65.654;21.944;2023-02-19T00:56:06;99074.03;;;-3.51;100.00
12676;BME280;63820;65.654;21.944;2023-02-19T00:58:51;99080.84;;;-3.53;100.00
12676;BME280;63820;65.654;21.944;2023-02-19T01:01:35;99090.19;;;-3.55;100.00
12676;BME280;63820;65.654;21.944;2023-02-19T01:04:20;99082.50;;;-3.49;100.00
12676;BME280;63820;65.654;21.944;2023-02-19T01:07:04;99077.47;;;-3.57;100.00
12676;BME280;63820;65.654;21.944;2023-02-19T01:09:48;99090.16;;;-3.52;100.00
12676;BME280;63820;65.654;21.944;2023-02-19T01:12:32;99089.28;;;-3.50;100.00
12676;BME280;63820;65.654;21.944;2023-02-19T01:15:16;99090.19;;;-3.55;100.00
12676;BME280;63820;65.654;21.944;2023-02-19T01:18:01;99096.09;;;-3.55;100.00
12676;BME280;63820;65.654;21.944;2023-02-19T01:20:45;99101.22;;;-3.58;100.00
12676;BME280;63820;65.654;21.944;2023-02-19T01:23:29;99084.28;;;-3.59;100.00
12676;BME280;63820;65.654;21.944;2023-02-19T01:26:16;99100.31;;;-3.52;100.00
12676;BME280;63820;65.654;21.944;2023-02-19T01:29:01;99104.56;;;-3.53;100.00
12676;BME280;63820;65.654;21.944;2023-02-19T01:31:45;99106.28;;;-3.56;100.00
12676;BME280;63820;65.654;21.944;2023-02-19T01:34:29;99102.94;;;-3.63;100.00
12676;BME280;63820;65.654;21.944;2023-02-19T01:37:16;99108.84;;;-3.59;100.00
12676;BME280;63820;65.654;21.944;2023-02-19T01:40:00;99105.50;;;-3.65;100.00
12676;BME280;63820;65.654;21.944;2023-02-19T01:42:44;99106.34;;;-3.64;100.00
12676;BME280;63820;65.654;21.944;2023-02-19T01:45:33;99113.13;;;-3.65;100.00
12676;BME280;63820;65.654;21.944;2023-02-19T01:48:25;99113.13;;;-3.66;100.00
12676;BME280;63820;65.654;21.944;2023-02-19T01:51:14;99109.75;;;-3.68;100.00
12676;BME280;63820;65.654;21.944;2023-02-19T01:54:03;99112.28;;;-3.64;100.00
12676;BME280;63820;65.654;21.944;2023-02-19T01:56:48;99113.13;;;-3.66;100.00
12676;BME280;63820;65.654;21.944;2023-02-19T01:59:33;99116.53;;;-3.67;100.00
12676;BME280;63820;65.654;21.944;2023-02-19T02:02:17;99118.22;;;-3.66;100.00
12676;BME280;63820;65.654;21.944;2023-02-19T02:05:02;99120.75;;;-3.66;100.00
12676;BME280;63820;65.654;21.944;2023-02-19T02:07:46;99121.63;;;-3.70;100.00
12676;BME280;63820;65.654;21.944;2023-02-19T02:10:49;99120.78;;;-3.71;100.00
12676;BME280;63820;65.654;21.944;2023-02-19T02:13:34;99101.38;;;-3.79;100.00
12676;BME280;63820;65.654;21.944;2023-02-19T02:16:28;99117.44;;;-3.74;100.00
12676;BME280;63820;65.654;21.944;2023-02-19T02:22:33;99123.38;;;-3.75;100.00
12676;BME280;63820;65.654;21.944;2023-02-19T02:32:02;99136.94;;;-3.76;100.00
12676;BME280;63820;65.654;21.944;2023-02-19T02:35:01;99146.22;;;-3.74;100.00
12676;BME280;63820;65.654;21.944;2023-02-19T02:37:47;99142.84;;;-3.74;100.00
12676;BME280;63820;65.654;21.944;2023-02-19T02:40:32;99140.31;;;-3.76;100.00
12676;BME280;63820;65.654;21.944;2023-02-19T02:43:17;99142.00;;;-3.76;100.00
12676;BME280;63820;65.654;21.944;2023-02-19T02:46:02;99136.94;;;-3.76;100.00
12676;BME280;63820;65.654;21.944;2023-02-19T02:48:52;99145.41;;;-3.77;100.00
12676;BME280;63820;65.654;21.944;2023-02-19T02:51:44;99144.56;;;-3.79;100.00
12676;BME280;63820;65.654;21.944;2023-02-19T02:54:31;99149.63;;;-3.76;100.00
12676;BME280;63820;65.654;21.944;2023-02-19T02:57:35;99153.84;;;-3.75;100.00
12676;BME280;63820;65.654;21.944;2023-02-19T03:00:20;99153.03;;;-3.77;100.00
12676;BME280;63820;65.654;21.944;2023-02-19T03:03:05;99153.88;;;-3.80;100.00
12676;BME280;63820;65.654;21.944;2023-02-19T03:05:51;99159.81;;;-3.79;100.00
12676;BME280;63820;65.654;21.944;2023-02-19T03:09:05;99154.75;;;-3.81;100.00
12676;BME280;63820;65.654;21.944;2023-02-19T03:11:51;99158.13;;;-3.80;100.00
12676;BME280;63820;65.654;21.944;2023-02-19T03:14:58;99158.97;;;-3.81;100.00
12676;BME280;63820;65.654;21.944;2023-02-19T03:18:06;99159.84;;;-3.85;100.00
12676;BME280;63820;65.654;21.944;2023-02-19T03:21:10;99170.00;;;-3.82;100.00
12676;BME280;63820;65.654;21.944;2023-02-19T03:23:55;99180.16;;;-3.82;100.00
12676;BME280;63820;65.654;21.944;2023-02-19T03:27:01;99175.94;;;-3.83;100.00
12676;BME280;63820;65.654;21.944;2023-02-19T03:29:49;99168.31;;;-3.83;100.00
12676;BME280;63820;65.654;21.944;2023-02-19T03:35:25;99186.09;;;-3.85;100.00
12676;BME280;63820;65.654;21.944;2023-02-19T03:38:14;99187.78;;;-3.82;100.00
12676;BME280;63820;65.654;21.944;2023-02-19T03:41:09;99189.47;;;-3.84;100.00
12676;BME280;63820;65.654;21.944;2023-02-19T03:44:10;99186.94;;;-3.84;100.00
12676;BME280;63820;65.654;21.944;2023-02-19T03:56:07;99187.81;;;-3.88;100.00
12676;BME280;63820;65.654;21.944;2023-02-19T04:02:02;99198.81;;;-3.88;100.00
12676;BME280;63820;65.654;21.944;2023-02-19T04:04:55;99201.38;;;-3.92;100.00
12676;BME280;63820;65.654;21.944;2023-02-19T04:07:45;99199.69;;;-3.93;100.00
12676;BME280;63820;65.654;21.944;2023-02-19T04:10:30;99168.50;;;-4.14;100.00
12676;BME280;63820;65.654;21.944;2023-02-19T04:13:19;99198.03;;;-3.98;100.00
12676;BME280;63820;65.654;21.944;2023-02-19T04:16:12;99204.78;;;-3.98;100.00
12676;BME280;63820;65.654;21.944;2023-02-19T04:19:04;99209.03;;;-3.99;100.00
12676;BME280;63820;65.654;21.944;2023-02-19T04:21:52;99206.50;;;-4.02;100.00
12676;BME280;63820;65.654;21.944;2023-02-19T04:24:40;99218.34;;;-4.01;100.00
12676;BME280;63820;65.654;21.944;2023-02-19T04:27:25;99209.88;;;-4.00;100.00
12676;BME280;63820;65.654;21.944;2023-02-19T04:30:11;99208.19;;;-4.01;100.00
12676;BME280;63820;65.654;21.944;2023-02-19T04:32:56;99220.03;;;-4.00;100.00
12676;BME280;63820;65.654;21.944;2023-02-19T04:35:40;99217.53;;;-4.03;100.00
12676;BME280;63820;65.654;21.944;2023-02-19T04:38:24;99214.97;;;-4.03;100.00
12676;BME280;63820;65.654;21.944;2023-02-19T04:41:08;99224.28;;;-4.03;100.00
12676;BME280;63820;65.654;21.944;2023-02-19T04:43:53;99221.75;;;-4.05;100.00
12676;BME280;63820;65.654;21.944;2023-02-19T04:46:39;99233.63;;;-4.07;100.00
12676;BME280;63820;65.654;21.944;2023-02-19T04:49:23;99233.63;;;-4.10;100.00
12676;BME280;63820;65.654;21.944;2023-02-19T04:52:08;99248.84;;;-4.07;100.00
12676;BME280;63820;65.654;21.944;2023-02-19T04:54:53;99242.09;;;-4.08;100.00
12676;BME280;63820;65.654;21.944;2023-02-19T04:57:37;99253.06;;;-4.06;100.00
12676;BME280;63820;65.654;21.944;2023-02-19T05:00:21;99249.72;;;-4.09;100.00
12676;BME280;63820;65.654;21.944;2023-02-19T05:03:05;99253.94;;;-4.10;100.00
12676;BME280;63820;65.654;21.944;2023-02-19T05:05:49;99253.09;;;-4.10;100.00
12676;BME280;63820;65.654;21.944;2023-02-19T05:08:33;99250.56;;;-4.10;100.00
12676;BME280;63820;65.654;21.944;2023-02-19T05:11:17;99261.56;;;-4.14;100.00
12676;BME280;63820;65.654;21.944;2023-02-19T05:14:02;99259.88;;;-4.14;100.00
12676;BME280;63820;65.654;21.944;2023-02-19T05:16:46;99252.31;;;-4.20;100.00
12676;BME280;63820;65.654;21.944;2023-02-19T05:19:30;99262.44;;;-4.14;100.00
12676;BME280;63820;65.654;21.944;2023-02-19T05:22:15;99265.81;;;-4.15;100.00
12676;BME280;63820;65.654;21.944;2023-02-19T05:24:59;99263.28;;;-4.15;100.00
12676;BME280;63820;65.654;21.944;2023-02-19T05:27:43;99259.94;;;-4.18;100.00
12676;BME280;63820;65.654;21.944;2023-02-19T05:30:28;99270.09;;;-4.18;100.00
12676;BME280;63820;65.654;21.944;2023-02-19T05:33:12;99265.84;;;-4.16;100.00
12676;BME280;63820;65.654;21.944;2023-02-19T05:35:57;99275.13;;;-4.15;100.00
12676;BME280;63820;65.654;21.944;2023-02-19T05:38:41;99273.47;;;-4.16;100.00
12676;BME280;63820;65.654;21.944;2023-02-19T05:41:27;99274.28;;;-4.16;100.00
12676;BME280;63820;65.654;21.944;2023-02-19T05:44:12;99270.94;;;-4.19;100.00
12676;BME280;63820;65.654;21.944;2023-02-19T05:46:55;99276.00;;;-4.18;100.00
12676;BME280;63820;65.654;21.944;2023-02-19T05:49:40;99275.16;;;-4.18;100.00
12676;BME280;63820;65.654;21.944;2023-02-19T05:52:23;99276.00;;;-4.18;100.00
12676;BME280;63820;65.654;21.944;2023-02-19T05:55:07;99276.00;;;-4.19;100.00
12676;BME280;63820;65.654;21.944;2023-02-19T05:57:51;99285.34;;;-4.21;100.00
12676;BME280;63820;65.654;21.944;2023-02-19T06:00:36;99282.78;;;-4.23;100.00
12676;BME280;63820;65.654;21.944;2023-02-19T06:03:20;99281.09;;;-4.24;100.00
12676;BME280;63820;65.654;21.944;2023-02-19T06:06:05;99287.88;;;-4.23;100.00
12676;BME280;63820;65.654;21.944;2023-02-19T06:08:50;99285.34;;;-4.26;100.00
12676;BME280;63820;65.654;21.944;2023-02-19T06:11:34;99296.34;;;-4.27;100.00
12676;BME280;63820;65.654;21.944;2023-02-19T06:14:18;99289.59;;;-4.28;100.00
12676;BME280;63820;65.654;21.944;2023-02-19T06:17:03;99307.34;;;-4.23;100.00
12676;BME280;63820;65.654;21.944;2023-02-19T06:19:47;99304.78;;;-4.22;100.00
12676;BME280;63820;65.654;21.944;2023-02-19T06:22:31;99308.19;;;-4.20;100.00
12676;BME280;63820;65.654;21.944;2023-02-19T06:25:15;99309.03;;;-4.22;100.00
12676;BME280;63820;65.654;21.944;2023-02-19T06:28:00;99308.19;;;-4.23;100.00
12676;BME280;63820;65.654;21.944;2023-02-19T06:30:44;99290.47;;;-4.40;100.00
12676;BME280;63820;65.654;21.944;2023-02-19T06:33:28;99303.13;;;-4.29;100.00
12676;BME280;63820;65.654;21.944;2023-02-19T06:36:15;99315.81;;;-4.26;100.00
12676;BME280;63820;65.654;21.944;2023-02-19T06:38:59;99326.78;;;-4.22;100.00
12676;BME280;63820;65.654;21.944;2023-02-19T06:41:44;99325.09;;;-4.20;100.00
12676;BME280;63820;65.654;21.944;2023-02-19T06:44:28;99324.25;;;-4.19;100.00
12676;BME280;63820;65.654;21.944;2023-02-19T06:47:12;99328.47;;;-4.20;100.00
12676;BME280;63820;65.654;21.944;2023-02-19T06:49:57;99326.81;;;-4.24;100.00
12676;BME280;63820;65.654;21.944;2023-02-19T06:52:41;99333.56;;;-4.23;100.00
12676;BME280;63820;65.654;21.944;2023-02-19T06:55:25;99327.66;;;-4.31;100.00
12676;BME280;63820;65.654;21.944;2023-02-19T06:58:09;99331.88;;;-4.25;100.00
12676;BME280;63820;65.654;21.944;2023-02-19T07:00:54;99332.72;;;-4.26;100.00
12676;BME280;63820;65.654;21.944;2023-02-19T07:03:38;99347.94;;;-4.22;100.00
12676;BME280;63820;65.654;21.944;2023-02-19T07:06:23;99340.34;;;-4.28;100.00
12676;BME280;63820;65.654;21.944;2023-02-19T07:09:08;99352.19;;;-4.29;100.00
12676;BME280;63820;65.654;21.944;2023-02-19T07:11:53;99356.44;;;-4.32;100.00
12676;BME280;63820;65.654;21.944;2023-02-19T07:14:37;99345.44;;;-4.43;100.00
12676;BME280;63820;65.654;21.944;2023-02-19T07:17:21;99358.13;;;-4.42;100.00
12676;BME280;63820;65.654;21.944;2023-02-19T07:20:05;99360.69;;;-4.46;100.00
12676;BME280;63820;65.654;21.944;2023-02-19T07:22:49;99366.59;;;-4.52;100.00
12676;BME280;63820;65.654;21.944;2023-02-19T07:25:33;99362.38;;;-4.45;100.00
12676;BME280;63820;65.654;21.944;2023-02-19T07:28:17;99362.34;;;-4.39;100.00
12676;BME280;63820;65.654;21.944;2023-02-19T07:31:03;99364.06;;;-4.38;100.00
12676;BME280;63820;65.654;21.944;2023-02-19T07:33:48;99364.88;;;-4.29;100.00
12676;BME280;63820;65.654;21.944;2023-02-19T07:36:32;99363.19;;;-4.23;100.00
12676;BME280;63820;65.654;21.944;2023-02-19T07:39:16;99372.44;;;-4.12;100.00
12676;BME280;63820;65.654;21.944;2023-02-19T07:42:00;99372.44;;;-4.07;100.00
12676;BME280;63820;65.654;21.944;2023-02-19T07:44:44;99377.50;;;-4.06;100.00
12676;BME280;63820;65.654;21.944;2023-02-19T07:47:28;99371.59;;;-4.08;100.00
12676;BME280;63820;65.654;21.944;2023-02-19T07:50:12;99382.56;;;-3.97;100.00
12676;BME280;63820;65.654;21.944;2023-02-19T07:52:57;99393.53;;;-3.79;100.00
12676;BME280;63820;65.654;21.944;2023-02-19T07:55:41;99387.59;;;-3.81;100.00
12676;BME280;63820;65.654;21.944;2023-02-19T07:58:25;99385.88;;;-3.75;100.00
12676;BME280;63820;65.654;21.944;2023-02-19T08:01:17;99388.41;;;-3.73;100.00
12676;BME280;63820;65.654;21.944;2023-02-19T08:04:02;99390.06;;;-3.63;100.00
12676;BME280;63820;65.654;21.944;2023-02-19T08:06:46;99390.09;;;-3.68;100.00
12676;BME280;63820;65.654;21.944;2023-02-19T08:09:30;99375.66;;;-3.55;100.00
12676;BME280;63820;65.654;21.944;2023-02-19T08:12:15;99395.00;;;-3.28;100.00
12676;BME280;63820;65.654;21.944;2023-02-19T08:15:17;99401.63;;;-3.03;100.00
12676;BME280;63820;65.654;21.944;2023-02-19T08:18:01;99402.25;;;-2.69;100.00
12676;BME280;63820;65.654;21.944;2023-02-19T08:20:46;99412.25;;;-2.44;100.00
12676;BME280;63820;65.654;21.944;2023-02-19T08:23:31;99411.63;;;-1.83;100.00
12676;BME280;63820;65.654;21.944;2023-02-19T08:26:15;99420.22;;;-0.58;100.00
12676;BME280;63820;65.654;21.944;2023-02-19T08:28:59;99416.09;;;0.75;100.00
12676;BME280;63820;65.654;21.944;2023-02-19T08:31:43;99391.66;;;1.71;84.86
12676;BME280;63820;65.654;21.944;2023-02-19T08:34:27;99424.75;;;2.45;72.03
12676;BME280;63820;65.654;21.944;2023-02-19T08:37:11;99425.72;;;1.76;68.93
12676;BME280;63820;65.654;21.944;2023-02-19T08:39:55;99431.78;;;1.72;70.07
12676;BME280;63820;65.654;21.944;2023-02-19T08:42:39;99432.25;;;1.52;72.18
12676;BME280;63820;65.654;21.944;2023-02-19T08:45:24;99435.09;;;2.10;72.04
12676;BME280;63820;65.654;21.944;2023-02-19T08:48:08;99437.69;;;3.29;65.78
12676;BME280;63820;65.654;21.944;2023-02-19T08:51:00;99434.38;;;4.54;59.93
12676;BME280;63820;65.654;21.944;2023-02-19T08:53:49;99443.56;;;4.13;57.27
12676;BME280;63820;65.654;21.944;2023-02-19T08:56:34;99439.56;;;2.96;61.19
12676;BME280;63820;65.654;21.944;2023-02-19T08:59:18;99442.16;;;2.02;67.78
12676;BME280;63820;65.654;21.944;2023-02-19T09:02:03;99439.31;;;1.04;72.68
12676;BME280;63820;65.654;21.944;2023-02-19T09:04:48;99452.69;;;0.35;80.77
12676;BME280;63820;65.654;21.944;2023-02-19T09:07:32;99451.31;;;0.16;92.95
12676;BME280;63820;65.654;21.944;2023-02-19T09:10:17;99464.91;;;-0.30;96.81
12676;BME280;63820;65.654;21.944;2023-02-19T09:13:01;99469.22;;;-0.34;100.00
12676;BME280;63820;65.654;21.944;2023-02-19T09:15:45;99473.47;;;-0.34;100.00
12676;BME280;63820;65.654;21.944;2023-02-19T09:18:29;99475.13;;;-0.31;100.00
12676;BME280;63820;65.654;21.944;2023-02-19T09:21:14;99470.25;;;-0.45;100.00
12676;BME280;63820;65.654;21.944;2023-02-19T09:23:58;99479.16;;;-0.74;100.00
12676;BME280;63820;65.654;21.944;2023-02-19T09:26:42;99486.94;;;-0.83;100.00
12676;BME280;63820;65.654;21.944;2023-02-19T09:29:26;99490.56;;;-1.01;100.00
12676;BME280;63820;65.654;21.944;2023-02-19T09:32:11;99490.66;;;-1.05;100.00
12676;BME280;63820;65.654;21.944;2023-02-19T09:34:56;99490.03;;;-1.24;100.00
12676;BME280;63820;65.654;21.944;2023-02-19T09:37:40;99496.22;;;-0.77;100.00
12676;BME280;63820;65.654;21.944;2023-02-19T09:40:25;99498.69;;;-0.70;100.00
12676;BME280;63820;65.654;21.944;2023-02-19T09:43:20;99497.97;;;-0.79;100.00
12676;BME280;63820;65.654;21.944;2023-02-19T09:46:21;99509.31;;;-1.03;100.00
12676;BME280;63820;65.654;21.944;2023-02-19T09:52:06;99523.03;;;-1.10;100.00
12676;BME280;63820;65.654;21.944;2023-02-19T09:54:54;99521.06;;;-0.90;100.00
12676;BME280;63820;65.654;21.944;2023-02-19T09:57:42;99513.38;;;-0.87;100.00
12676;BME280;63820;65.654;21.944;2023-02-19T10:00:33;99523.53;;;-0.82;100.00
12676;BME280;63820;65.654;21.944;2023-02-19T10:03:27;99527.63;;;-0.71;100.00
12676;BME280;63820;65.654;21.944;2023-02-19T10:09:21;99532.19;;;-0.95;100.00
12676;BME280;63820;65.654;21.944;2023-02-19T10:12:14;99531.16;;;-0.79;100.00
12676;BME280;63820;65.654;21.944;2023-02-19T10:15:14;99535.06;;;-0.52;100.00
12676;BME280;63820;65.654;21.944;2023-02-19T10:18:01;99538.78;;;-0.76;100.00
12676;BME280;63820;65.654;21.944;2023-02-19T10:20:47;99542.00;;;-0.62;100.00
12676;BME280;63820;65.654;21.944;2023-02-19T10:23:32;99549.78;;;-0.73;100.00
12676;BME280;63820;65.654;21.944;2023-02-19T10:26:17;99551.53;;;-0.75;100.00
12676;BME280;63820;65.654;21.944;2023-02-19T10:29:03;99549.34;;;-1.05;100.00
12676;BME280;63820;65.654;21.944;2023-02-19T10:31:47;99560.44;;;-1.06;100.00
12676;BME280;63820;65.654;21.944;2023-02-19T10:34:31;99559.41;;;-0.93;100.00
12676;BME280;63820;65.654;21.944;2023-02-19T10:37:16;99559.44;;;-0.96;100.00
12676;BME280;63820;65.654;21.944;2023-02-19T10:40:01;99565.19;;;-0.79;100.00
12676;BME280;63820;65.654;21.944;2023-02-19T10:42:48;99566.69;;;-0.62;100.00
12676;BME280;63820;65.654;21.944;2023-02-19T10:45:38;99561.16;;;-0.32;100.00
12676;BME280;63820;65.654;21.944;2023-02-19T10:48:56;99564.72;;;-0.42;100.00
12676;BME280;63820;65.654;21.944;2023-02-19T10:51:41;99574.44;;;-0.70;100.00
12676;BME280;63820;65.654;21.944;2023-02-19T10:54:31;99574.69;;;-0.90;100.00
12676;BME280;63820;65.654;21.944;2023-02-19T11:00:19;99584.41;;;-1.22;100.00
12676;BME280;63820;65.654;21.944;2023-02-19T11:06:03;99584.53;;;-0.61;100.00
12676;BME280;63820;65.654;21.944;2023-02-19T11:08:58;99590.97;;;-0.31;100.00
12676;BME280;63820;65.654;21.944;2023-02-19T11:11:43;99595.16;;;-0.25;100.00
12676;BME280;63820;65.654;21.944;2023-02-19T11:14:33;99604.25;;;-0.06;100.00
12676;BME280;63820;65.654;21.944;2023-02-19T11:17:27;99588.50;;;-0.37;100.00
12676;BME280;63820;65.654;21.944;2023-02-19T11:20:15;99610.38;;;-0.18;100.00
12676;BME280;63820;65.654;21.944;2023-02-19T11:23:11;99610.06;;;0.02;100.00
12676;BME280;63820;65.654;21.944;2023-02-19T11:26:06;99608.56;;;-0.10;100.00
12676;BME280;63820;65.654;21.944;2023-02-19T11:29:01;99604.47;;;-0.23;100.00
12676;BME280;63820;65.654;21.944;2023-02-19T11:31:54;99598.88;;;-0.49;100.00
12676;BME280;63820;65.654;21.944;2023-02-19T11:34:39;99613.38;;;-0.51;100.00
12676;BME280;63820;65.654;21.944;2023-02-19T11:37:23;99608.56;;;-0.77;100.00
12676;BME280;63820;65.654;21.944;2023-02-19T11:40:11;99617.56;;;-0.46;100.00
12676;BME280;63820;65.654;21.944;2023-02-19T11:46:18;99625.50;;;-0.69;100.00
12676;BME280;63820;65.654;21.944;2023-02-19T11:50:26;99624.94;;;-0.24;100.00
12676;BME280;63820;65.654;21.944;2023-02-19T11:52:45;99619.00;;;-0.26;100.00
12676;BME280;63820;65.654;21.944;2023-02-19T11:58:57;99643.50;;;-0.81;100.00
12676;BME280;63820;65.654;21.944;2023-02-19T12:39:09;99688.03;;;-1.08;100.00
12676;BME280;63820;65.654;21.944;2023-02-19T12:42:02;99683.69;;;-1.01;100.00
12676;BME280;63820;65.654;21.944;2023-02-19T12:48:11;99676.69;;;-0.81;100.00
12676;BME280;63820;65.654;21.944;2023-02-19T12:51:03;99678.28;;;-0.69;100.00
12676;BME280;63820;65.654;21.944;2023-02-19T12:56:49;99677.28;;;-0.57;100.00
12676;BME280;63820;65.654;21.944;2023-02-19T12:59:43;99677.97;;;-0.42;100.00
12676;BME280;63820;65.654;21.944;2023-02-19T13:08:52;99692.28;;;-0.27;100.00
12676;BME280;63820;65.654;21.944;2023-02-19T13:11:43;99691.88;;;-0.69;100.00
12676;BME280;63820;65.654;21.944;2023-02-19T13:14:36;99691.97;;;-0.76;100.00
12676;BME280;63820;65.654;21.944;2023-02-19T13:17:37;99692.84;;;-0.79;100.00
12676;BME280;63820;65.654;21.944;2023-02-19T13:20:36;99693.13;;;-1.05;100.00
12676;BME280;63820;65.654;21.944;2023-02-19T13:23:34;99693.91;;;-1.00;100.00
12676;BME280;63820;65.654;21.944;2023-02-19T13:36:17;99711.41;;;-1.62;100.00
12676;BME280;63820;65.654;21.944;2023-02-19T13:39:05;99719.13;;;-1.70;100.00
12676;BME280;63820;65.654;21.944;2023-02-19T13:41:57;99724.22;;;-1.72;100.00
12676;BME280;63820;65.654;21.944;2023-02-19T13:44:46;99722.56;;;-1.77;100.00
12676;BME280;63820;65.654;21.944;2023-02-19T13:50:42;99730.34;;;-2.06;100.00
12676;BME280;63820;65.654;21.944;2023-02-19T13:59:23;99743.19;;;-2.27;100.00
12676;BME280;63820;65.654;21.944;2023-02-19T14:05:07;99742.38;;;-2.39;100.00
12676;BME280;63820;65.654;21.944;2023-02-19T14:07:53;99747.50;;;-2.52;100.00
12676;BME280;63820;65.654;21.944;2023-02-19T14:22:45;99761.97;;;-2.70;100.00
12676;BME280;63820;65.654;21.944;2023-02-19T14:25:34;99756.88;;;-2.74;100.00
12676;BME280;63820;65.654;21.944;2023-02-19T14:28:24;99763.66;;;-2.72;100.00
12676;BME280;63820;65.654;21.944;2023-02-19T14:34:26;99768.75;;;-2.76;100.00
12676;BME280;63820;65.654;21.944;2023-02-19T14:37:21;99766.22;;;-2.79;100.00
12676;BME280;63820;65.654;21.944;2023-02-19T14:40:06;99778.94;;;-2.84;100.00
12676;BME280;63820;65.654;21.944;2023-02-19T14:42:53;99773.00;;;-2.90;100.00
12676;BME280;63820;65.654;21.944;2023-02-19T14:45:41;99781.47;;;-2.88;100.00
12676;BME280;63820;65.654;21.944;2023-02-19T14:48:33;99782.34;;;-2.94;100.00
12676;BME280;63820;65.654;21.944;2023-02-19T14:51:38;99783.19;;;-3.03;100.00
12676;BME280;63820;65.654;21.944;2023-02-19T14:54:48;99785.72;;;-3.04;100.00
12676;BME280;63820;65.654;21.944;2023-02-19T14:57:38;99788.25;;;-3.09;100.00
12676;BME280;63820;65.654;21.944;2023-02-19T15:00:34;99792.53;;;-3.12;100.00
12676;BME280;63820;65.654;21.944;2023-02-19T15:03:38;99784.88;;;-3.24;100.00
12676;BME280;63820;65.654;21.944;2023-02-19T15:06:22;99803.53;;;-3.28;100.00
12676;BME280;63820;65.654;21.944;2023-02-19T15:09:07;99794.19;;;-3.39;100.00
12676;BME280;63820;65.654;21.944;2023-02-19T15:11:52;99798.41;;;-3.47;100.00
12676;BME280;63820;65.654;21.944;2023-02-19T15:14:38;99804.31;;;-3.54;100.00
12676;BME280;63820;65.654;21.944;2023-02-19T15:17:28;99808.53;;;-3.65;100.00
12676;BME280;63820;65.654;21.944;2023-02-19T15:20:21;99817.81;;;-3.76;100.00
12676;BME280;63820;65.654;21.944;2023-02-19T15:23:07;99816.91;;;-3.87;100.00
12676;BME280;63820;65.654;21.944;2023-02-19T15:25:52;99817.72;;;-3.95;100.00
12676;BME280;63820;65.654;21.944;2023-02-19T15:28:36;99818.53;;;-4.03;100.00
12676;BME280;63820;65.654;21.944;2023-02-19T15:31:20;99813.41;;;-4.14;100.00
12676;BME280;63820;65.654;21.944;2023-02-19T15:34:12;99815.91;;;-4.23;100.00
12676;BME280;63820;65.654;21.944;2023-02-19T15:37:06;99822.63;;;-4.34;100.00
12676;BME280;63820;65.654;21.944;2023-02-19T15:39:52;99823.38;;;-4.47;100.00
12676;BME280;63820;65.654;21.944;2023-02-19T15:42:37;99826.69;;;-4.57;100.00
12676;BME280;63820;65.654;21.944;2023-02-19T15:45:31;99828.28;;;-4.72;100.00
12676;BME280;63820;65.654;21.944;2023-02-19T15:48:26;99818.03;;;-4.85;100.00
12676;BME280;63820;65.654;21.944;2023-02-19T15:51:22;99820.50;;;-4.93;100.00
12676;BME280;63820;65.654;21.944;2023-02-19T15:54:30;99823.75;;;-5.06;100.00
12676;BME280;63820;65.654;21.944;2023-02-19T15:57:22;99828.75;;;-5.15;100.00
12676;BME280;63820;65.654;21.944;2023-02-19T16:02:56;99825.16;;;-5.39;100.00
12676;BME280;63820;65.654;21.944;2023-02-19T16:05:41;99826.75;;;-5.50;100.00
12676;BME280;63820;65.654;21.944;2023-02-19T16:08:31;99822.28;;;-5.71;100.00
12676;BME280;63820;65.654;21.944;2023-02-19T16:19:56;99837.69;;;-6.22;100.00
12676;BME280;63820;65.654;21.944;2023-02-19T16:22:40;99841.91;;;-6.25;100.00
12676;BME280;63820;65.654;21.944;2023-02-19T16:25:35;99841.06;;;-6.24;100.00
12676;BME280;63820;65.654;21.944;2023-02-19T16:28:24;99846.03;;;-6.32;100.00
12676;BME280;63820;65.654;21.944;2023-02-19T16:31:11;99849.22;;;-6.44;100.00
12676;BME280;63820;65.654;21.944;2023-02-19T16:34:15;99860.84;;;-6.56;100.00
12676;BME280;63820;65.654;21.944;2023-02-19T16:37:01;99853.16;;;-6.63;100.00
12676;BME280;63820;65.654;21.944;2023-02-19T16:39:45;99853.09;;;-6.66;100.00
12676;BME280;63820;65.654;21.944;2023-02-19T16:42:29;99856.38;;;-6.73;100.00
12676;BME280;63820;65.654;21.944;2023-02-19T16:45:14;99853.75;;;-6.79;100.00
12676;BME280;63820;65.654;21.944;2023-02-19T16:47:58;99858.59;;;-6.91;100.00